sensor_id;sensor_type;location;lat;lon;timestamp;pressure;altitude;pressure_sealevel;temperature;humidity
47913;BME280;33676;51.006;17.180;2023-04-09T00:01:09;100977.65;;;8.71;81.83
47913;BME280;33676;51.006;17.180;2023-04-09T00:03:38;100977.34;;;8.70;81.85
47913;BME280;33676;51.006;17.180;2023-04-09T00:06:07;100977.42;;;8.69;81.84
47913;BME280;33676;51.006;17.180;2023-04-09T00:08:36;100977.70;;;8.67;81.84
47913;BME280;33676;51.006;17.180;2023-04-09T00:11:04;100976.70;;;8.66;81.95
47913;BME280;33676;51.006;17.180;2023-04-09T00:13:33;100977.29;;;8.66;81.98
47913;BME280;33676;51.006;17.180;2023-04-09T00:16:07;100979.08;;;8.65;81.84
47913;BME280;33676;51.006;17.180;2023-04-09T00:18:36;100977.46;;;8.62;82.02
47913;BME280;33676;51.006;17.180;2023-04-09T00:21:04;100978.60;;;8.61;81.97
47913;BME280;33676;51.006;17.180;2023-04-09T00:23:34;100978.45;;;8.60;82.09
47913;BME280;33676;51.006;17.180;2023-04-09T00:26:03;100977.73;;;8.60;82.07
47913;BME280;33676;51.006;17.180;2023-04-09T00:28:32;100978.11;;;8.60;82.17
47913;BME280;33676;51.006;17.180;2023-04-09T00:31:01;100978.73;;;8.58;82.05
47913;BME280;33676;51.006;17.180;2023-04-09T00:33:29;100977.77;;;8.57;82.14
47913;BME280;33676;51.006;17.180;2023-04-09T00:35:58;100979.98;;;8.58;82.25
47913;BME280;33676;51.006;17.180;2023-04-09T00:38:26;100979.14;;;8.57;82.18
47913;BME280;33676;51.006;17.180;2023-04-09T00:40:55;100982.83;;;8.57;82.27
47913;BME280;33676;51.006;17.180;2023-04-09T00:43:23;100984.23;;;8.56;82.24
47913;BME280;33676;51.006;17.180;2023-04-09T00:45:52;100982.89;;;8.56;82.22
47913;BME280;33676;51.006;17.180;2023-04-09T00:48:21;100985.84;;;8.56;82.28
47913;BME280;33676;51.006;17.180;2023-04-09T00:50:50;100988.08;;;8.56;82.36
47913;BME280;33676;51.006;17.180;2023-04-09T00:53:18;100988.23;;;8.56;82.34
47913;BME280;33676;51.006;17.180;2023-04-09T00:55:47;100989.70;;;8.55;82.24
47913;BME280;33676;51.006;17.180;2023-04-09T00:58:15;100988.73;;;8.54;82.33
47913;BME280;33676;51.006;17.180;2023-04-09T01:00:44;100993.12;;;8.54;82.32
47913;BME280;33676;51.006;17.180;2023-04-09T01:03:12;100993.66;;;8.53;82.39
47913;BME280;33676;51.006;17.180;2023-04-09T01:06:05;100995.21;;;8.53;82.48
47913;BME280;33676;51.006;17.180;2023-04-09T01:08:48;100996.46;;;8.53;82.51
47913;BME280;33676;51.006;17.180;2023-04-09T01:17:33;100995.30;;;8.52;82.57
47913;BME280;33676;51.006;17.180;2023-04-09T01:20:17;100999.59;;;8.50;82.52
47913;BME280;33676;51.006;17.180;2023-04-09T01:26:17;101000.34;;;8.46;82.49
47913;BME280;33676;51.006;17.180;2023-04-09T01:28:52;101000.31;;;8.44;82.56
47913;BME280;33676;51.006;17.180;2023-04-09T01:31:41;100999.84;;;8.43;82.57
47913;BME280;33676;51.006;17.180;2023-04-09T01:34:11;100997.79;;;8.42;82.74
47913;BME280;33676;51.006;17.180;2023-04-09T01:36:47;101000.80;;;8.41;82.78
47913;BME280;33676;51.006;17.180;2023-04-09T01:39:17;100999.86;;;8.40;82.78
47913;BME280;33676;51.006;17.180;2023-04-09T01:41:47;101000.86;;;8.37;82.81
47913;BME280;33676;51.006;17.180;2023-04-09T01:44:18;101005.48;;;8.36;82.79
47913;BME280;33676;51.006;17.180;2023-04-09T01:46:48;101005.87;;;8.35;82.87
47913;BME280;33676;51.006;17.180;2023-04-09T01:49:17;101008.61;;;8.33;82.91
47913;BME280;33676;51.006;17.180;2023-04-09T01:51:46;101005.06;;;8.31;82.91
47913;BME280;33676;51.006;17.180;2023-04-09T01:54:15;101009.14;;;8.26;82.95
47913;BME280;33676;51.006;17.180;2023-04-09T01:56:46;101006.58;;;8.22;82.92
47913;BME280;33676;51.006;17.180;2023-04-09T01:59:14;101007.83;;;8.19;83.06
47913;BME280;33676;51.006;17.180;2023-04-09T02:01:58;101013.55;;;8.16;83.15
47913;BME280;33676;51.006;17.180;2023-04-09T02:04:40;101013.95;;;8.15;83.28
47913;BME280;33676;51.006;17.180;2023-04-09T02:07:17;101018.92;;;8.14;83.43
47913;BME280;33676;51.006;17.180;2023-04-09T02:09:47;101020.25;;;8.15;83.55
47913;BME280;33676;51.006;17.180;2023-04-09T02:12:17;101016.68;;;8.13;83.54
47913;BME280;33676;51.006;17.180;2023-04-09T02:14:47;101019.65;;;8.13;83.67
47913;BME280;33676;51.006;17.180;2023-04-09T02:17:18;101020.20;;;8.12;83.61
47913;BME280;33676;51.006;17.180;2023-04-09T02:19:46;101023.14;;;8.10;83.64
47913;BME280;33676;51.006;17.180;2023-04-09T02:22:15;101017.14;;;8.08;83.67
47913;BME280;33676;51.006;17.180;2023-04-09T02:24:45;101017.38;;;8.07;83.75
47913;BME280;33676;51.006;17.180;2023-04-09T02:27:13;101012.96;;;8.05;83.74
47913;BME280;33676;51.006;17.180;2023-04-09T02:29:42;101012.69;;;8.04;83.86
47913;BME280;33676;51.006;17.180;2023-04-09T02:32:10;101012.89;;;8.03;83.93
47913;BME280;33676;51.006;17.180;2023-04-09T02:34:39;101008.63;;;8.02;83.96
47913;BME280;33676;51.006;17.180;2023-04-09T02:37:07;101010.96;;;8.00;84.11
47913;BME280;33676;51.006;17.180;2023-04-09T02:39:36;101013.59;;;8.00;84.11
47913;BME280;33676;51.006;17.180;2023-04-09T02:42:04;101016.60;;;8.02;84.25
47913;BME280;33676;51.006;17.180;2023-04-09T02:44:34;101015.45;;;8.04;84.31
47913;BME280;33676;51.006;17.180;2023-04-09T02:47:03;101018.69;;;8.05;84.31
47913;BME280;33676;51.006;17.180;2023-04-09T02:49:31;101020.42;;;8.06;84.29
47913;BME280;33676;51.006;17.180;2023-04-09T02:52:00;101019.50;;;8.07;84.44
47913;BME280;33676;51.006;17.180;2023-04-09T02:54:28;101019.83;;;8.07;84.32
47913;BME280;33676;51.006;17.180;2023-04-09T02:56:56;101019.48;;;8.07;84.40
47913;BME280;33676;51.006;17.180;2023-04-09T02:59:25;101019.83;;;8.07;84.46
47913;BME280;33676;51.006;17.180;2023-04-09T03:01:53;101017.73;;;8.07;84.35
47913;BME280;33676;51.006;17.180;2023-04-09T03:04:22;101021.03;;;8.07;84.48
47913;BME280;33676;51.006;17.180;2023-04-09T03:06:50;101022.36;;;8.08;84.47
47913;BME280;33676;51.006;17.180;2023-04-09T03:09:18;101023.69;;;8.09;84.46
47913;BME280;33676;51.006;17.180;2023-04-09T03:11:47;101026.96;;;8.10;84.58
47913;BME280;33676;51.006;17.180;2023-04-09T03:14:15;101033.20;;;8.11;84.62
47913;BME280;33676;51.006;17.180;2023-04-09T03:16:44;101029.89;;;8.11;84.62
47913;BME280;33676;51.006;17.180;2023-04-09T03:19:12;101028.00;;;8.10;84.65
47913;BME280;33676;51.006;17.180;2023-04-09T03:21:42;101029.22;;;8.07;84.59
47913;BME280;33676;51.006;17.180;2023-04-09T03:24:11;101029.80;;;8.06;84.63
47913;BME280;33676;51.006;17.180;2023-04-09T03:26:39;101026.88;;;8.05;84.65
47913;BME280;33676;51.006;17.180;2023-04-09T03:29:08;101024.63;;;8.05;84.68
47913;BME280;33676;51.006;17.180;2023-04-09T03:31:36;101024.54;;;8.04;84.57
47913;BME280;33676;51.006;17.180;2023-04-09T03:34:05;101027.20;;;7.99;84.51
47913;BME280;33676;51.006;17.180;2023-04-09T03:36:33;101024.86;;;7.97;84.58
47913;BME280;33676;51.006;17.180;2023-04-09T03:39:02;101027.60;;;7.95;84.52
47913;BME280;33676;51.006;17.180;2023-04-09T03:41:30;101025.92;;;7.94;84.70
47913;BME280;33676;51.006;17.180;2023-04-09T03:43:59;101022.48;;;7.93;84.83
47913;BME280;33676;51.006;17.180;2023-04-09T03:46:27;101022.17;;;7.93;84.93
47913;BME280;33676;51.006;17.180;2023-04-09T03:48:55;101026.36;;;7.92;84.93
47913;BME280;33676;51.006;17.180;2023-04-09T03:51:24;101028.26;;;7.92;85.08
47913;BME280;33676;51.006;17.180;2023-04-09T03:53:52;101027.89;;;7.93;85.18
47913;BME280;33676;51.006;17.180;2023-04-09T03:56:21;101033.09;;;7.93;85.23
47913;BME280;33676;51.006;17.180;2023-04-09T03:58:49;101031.10;;;7.95;85.30
47913;BME280;33676;51.006;17.180;2023-04-09T04:01:18;101034.35;;;7.95;85.38
47913;BME280;33676;51.006;17.180;2023-04-09T04:03:46;101033.11;;;7.96;85.22
47913;BME280;33676;51.006;17.180;2023-04-09T04:06:15;101035.30;;;7.94;85.26
47913;BME280;33676;51.006;17.180;2023-04-09T04:08:43;101034.50;;;7.93;85.33
47913;BME280;33676;51.006;17.180;2023-04-09T04:11:12;101034.20;;;7.92;85.35
47913;BME280;33676;51.006;17.180;2023-04-09T04:13:40;101038.56;;;7.92;85.46
47913;BME280;33676;51.006;17.180;2023-04-09T04:16:09;101037.21;;;7.91;85.62
47913;BME280;33676;51.006;17.180;2023-04-09T04:18:37;101037.27;;;7.90;85.64
47913;BME280;33676;51.006;17.180;2023-04-09T04:21:12;101035.96;;;7.88;85.74
47913;BME280;33676;51.006;17.180;2023-04-09T04:23:41;101040.11;;;7.86;85.96
47913;BME280;33676;51.006;17.180;2023-04-09T04:26:10;101040.95;;;7.83;86.00
47913;BME280;33676;51.006;17.180;2023-04-09T04:28:39;101045.90;;;7.82;86.20
47913;BME280;33676;51.006;17.180;2023-04-09T04:31:11;101044.61;;;7.80;86.33
47913;BME280;33676;51.006;17.180;2023-04-09T04:33:41;101046.48;;;7.78;86.51
47913;BME280;33676;51.006;17.180;2023-04-09T04:36:12;101051.13;;;7.76;86.57
47913;BME280;33676;51.006;17.180;2023-04-09T04:38:40;101051.29;;;7.73;86.74
47913;BME280;33676;51.006;17.180;2023-04-09T04:41:09;101047.80;;;7.70;86.73
47913;BME280;33676;51.006;17.180;2023-04-09T04:43:38;101046.46;;;7.66;86.93
47913;BME280;33676;51.006;17.180;2023-04-09T04:46:08;101045.66;;;7.61;87.13
47913;BME280;33676;51.006;17.180;2023-04-09T04:48:36;101050.29;;;7.59;87.25
47913;BME280;33676;51.006;17.180;2023-04-09T04:51:05;101046.19;;;7.54;87.41
47913;BME280;33676;51.006;17.180;2023-04-09T04:53:33;101046.36;;;7.51;87.63
47913;BME280;33676;51.006;17.180;2023-04-09T04:56:02;101051.38;;;7.49;87.78
47913;BME280;33676;51.006;17.180;2023-04-09T04:58:30;101053.89;;;7.47;88.12
47913;BME280;33676;51.006;17.180;2023-04-09T05:00:59;101057.14;;;7.45;88.03
47913;BME280;33676;51.006;17.180;2023-04-09T05:03:27;101050.98;;;7.43;88.33
47913;BME280;33676;51.006;17.180;2023-04-09T05:05:56;101050.55;;;7.41;88.45
47913;BME280;33676;51.006;17.180;2023-04-09T05:08:24;101048.03;;;7.39;88.48
47913;BME280;33676;51.006;17.180;2023-04-09T05:10:53;101048.95;;;7.39;88.66
47913;BME280;33676;51.006;17.180;2023-04-09T05:13:23;101050.55;;;7.38;88.84
47913;BME280;33676;51.006;17.180;2023-04-09T05:15:52;101050.70;;;7.38;89.15
47913;BME280;33676;51.006;17.180;2023-04-09T05:18:20;101051.65;;;7.40;89.13
47913;BME280;33676;51.006;17.180;2023-04-09T05:20:48;101053.65;;;7.42;89.47
47913;BME280;33676;51.006;17.180;2023-04-09T05:23:17;101056.84;;;7.44;89.56
47913;BME280;33676;51.006;17.180;2023-04-09T05:25:48;101058.68;;;7.45;89.78
47913;BME280;33676;51.006;17.180;2023-04-09T05:28:17;101059.50;;;7.46;89.97
47913;BME280;33676;51.006;17.180;2023-04-09T05:30:46;101061.72;;;7.47;90.10
47913;BME280;33676;51.006;17.180;2023-04-09T05:33:14;101062.61;;;7.47;90.19
47913;BME280;33676;51.006;17.180;2023-04-09T05:35:43;101062.48;;;7.46;90.30
47913;BME280;33676;51.006;17.180;2023-04-09T05:38:11;101063.04;;;7.45;90.31
47913;BME280;33676;51.006;17.180;2023-04-09T05:40:40;101064.30;;;7.44;90.47
47913;BME280;33676;51.006;17.180;2023-04-09T05:43:11;101067.45;;;7.44;90.58
47913;BME280;33676;51.006;17.180;2023-04-09T05:45:39;101070.56;;;7.44;90.75
47913;BME280;33676;51.006;17.180;2023-04-09T05:48:08;101068.41;;;7.45;91.09
47913;BME280;33676;51.006;17.180;2023-04-09T05:50:36;101072.85;;;7.47;91.13
47913;BME280;33676;51.006;17.180;2023-04-09T05:53:21;101073.45;;;7.49;91.25
47913;BME280;33676;51.006;17.180;2023-04-09T05:55:50;101073.41;;;7.49;91.49
47913;BME280;33676;51.006;17.180;2023-04-09T05:58:18;101074.94;;;7.50;91.67
47913;BME280;33676;51.006;17.180;2023-04-09T06:00:47;101076.86;;;7.50;91.88
47913;BME280;33676;51.006;17.180;2023-04-09T06:03:15;101075.92;;;7.51;92.08
47913;BME280;33676;51.006;17.180;2023-04-09T06:05:44;101077.42;;;7.53;92.27
47913;BME280;33676;51.006;17.180;2023-04-09T06:08:13;101077.29;;;7.52;92.30
47913;BME280;33676;51.006;17.180;2023-04-09T06:10:42;101072.49;;;7.51;92.41
47913;BME280;33676;51.006;17.180;2023-04-09T06:13:10;101073.58;;;7.50;92.61
47913;BME280;33676;51.006;17.180;2023-04-09T06:15:39;101078.52;;;7.48;92.67
47913;BME280;33676;51.006;17.180;2023-04-09T06:18:07;101080.35;;;7.47;92.80
47913;BME280;33676;51.006;17.180;2023-04-09T06:20:36;101082.05;;;7.44;92.80
47913;BME280;33676;51.006;17.180;2023-04-09T06:23:04;101078.59;;;7.44;93.10
47913;BME280;33676;51.006;17.180;2023-04-09T06:25:35;101080.29;;;7.41;93.33
47913;BME280;33676;51.006;17.180;2023-04-09T06:28:04;101084.61;;;7.38;93.34
47913;BME280;33676;51.006;17.180;2023-04-09T06:30:32;101083.71;;;7.36;93.62
47913;BME280;33676;51.006;17.180;2023-04-09T06:33:02;101080.73;;;7.33;93.80
47913;BME280;33676;51.006;17.180;2023-04-09T06:35:31;101074.86;;;7.28;93.95
47913;BME280;33676;51.006;17.180;2023-04-09T06:37:59;101077.63;;;7.26;94.12
47913;BME280;33676;51.006;17.180;2023-04-09T06:40:28;101072.39;;;7.23;94.29
47913;BME280;33676;51.006;17.180;2023-04-09T06:42:57;101070.40;;;7.21;94.60
47913;BME280;33676;51.006;17.180;2023-04-09T06:45:25;101070.19;;;7.18;94.83
47913;BME280;33676;51.006;17.180;2023-04-09T06:47:54;101068.13;;;7.18;95.09
47913;BME280;33676;51.006;17.180;2023-04-09T06:50:23;101067.36;;;7.16;95.24
47913;BME280;33676;51.006;17.180;2023-04-09T06:52:51;101068.70;;;7.13;95.34
47913;BME280;33676;51.006;17.180;2023-04-09T06:55:20;101068.19;;;7.10;95.37
47913;BME280;33676;51.006;17.180;2023-04-09T06:57:48;101066.73;;;7.08;95.46
47913;BME280;33676;51.006;17.180;2023-04-09T07:00:17;101070.85;;;7.05;95.59
47913;BME280;33676;51.006;17.180;2023-04-09T07:02:46;101070.75;;;7.04;95.66
47913;BME280;33676;51.006;17.180;2023-04-09T07:05:15;101075.13;;;7.03;95.73
47913;BME280;33676;51.006;17.180;2023-04-09T07:07:43;101078.52;;;7.02;95.88
47913;BME280;33676;51.006;17.180;2023-04-09T07:10:12;101080.14;;;7.00;95.93
47913;BME280;33676;51.006;17.180;2023-04-09T07:12:40;101090.48;;;6.98;96.04
47913;BME280;33676;51.006;17.180;2023-04-09T07:15:09;101093.21;;;6.95;95.98
47913;BME280;33676;51.006;17.180;2023-04-09T07:17:37;101092.26;;;6.94;96.27
47913;BME280;33676;51.006;17.180;2023-04-09T07:20:06;101093.86;;;6.93;96.47
47913;BME280;33676;51.006;17.180;2023-04-09T07:22:35;101093.18;;;6.93;96.59
47913;BME280;33676;51.006;17.180;2023-04-09T07:25:04;101099.96;;;6.93;96.66
47913;BME280;33676;51.006;17.180;2023-04-09T07:27:33;101103.91;;;6.94;96.96
47913;BME280;33676;51.006;17.180;2023-04-09T07:30:02;101108.41;;;6.94;97.07
47913;BME280;33676;51.006;17.180;2023-04-09T07:32:31;101108.57;;;6.94;97.25
47913;BME280;33676;51.006;17.180;2023-04-09T07:35:02;101109.36;;;6.93;97.13
47913;BME280;33676;51.006;17.180;2023-04-09T07:37:32;101110.64;;;6.91;97.23
47913;BME280;33676;51.006;17.180;2023-04-09T07:40:01;101105.37;;;6.89;97.39
47913;BME280;33676;51.006;17.180;2023-04-09T07:42:31;101104.77;;;6.87;97.32
47913;BME280;33676;51.006;17.180;2023-04-09T07:44:59;101107.75;;;6.87;97.40
47913;BME280;33676;51.006;17.180;2023-04-09T07:47:28;101116.05;;;6.87;97.44
47913;BME280;33676;51.006;17.180;2023-04-09T07:49:56;101119.10;;;6.89;97.55
47913;BME280;33676;51.006;17.180;2023-04-09T07:52:25;101121.44;;;6.91;97.80
47913;BME280;33676;51.006;17.180;2023-04-09T07:54:53;101119.92;;;6.94;97.76
47913;BME280;33676;51.006;17.180;2023-04-09T07:57:21;101117.80;;;6.95;97.73
47913;BME280;33676;51.006;17.180;2023-04-09T07:59:52;101120.02;;;6.95;97.76
47913;BME280;33676;51.006;17.180;2023-04-09T08:02:20;101128.20;;;6.95;97.69
47913;BME280;33676;51.006;17.180;2023-04-09T08:04:50;101132.45;;;6.97;97.89
47913;BME280;33676;51.006;17.180;2023-04-09T08:07:19;101131.16;;;6.98;98.10
47913;BME280;33676;51.006;17.180;2023-04-09T08:09:47;101130.52;;;7.01;98.22
47913;BME280;33676;51.006;17.180;2023-04-09T08:12:16;101130.70;;;7.01;98.15
47913;BME280;33676;51.006;17.180;2023-04-09T08:14:44;101125.54;;;7.00;98.05
47913;BME280;33676;51.006;17.180;2023-04-09T08:17:13;101123.33;;;6.98;98.11
47913;BME280;33676;51.006;17.180;2023-04-09T08:19:41;101123.90;;;6.97;98.20
47913;BME280;33676;51.006;17.180;2023-04-09T08:22:10;101117.53;;;6.96;98.30
47913;BME280;33676;51.006;17.180;2023-04-09T08:24:39;101120.15;;;6.96;98.62
47913;BME280;33676;51.006;17.180;2023-04-09T08:27:07;101123.50;;;6.95;98.75
47913;BME280;33676;51.006;17.180;2023-04-09T08:29:36;101121.94;;;6.95;98.73
47913;BME280;33676;51.006;17.180;2023-04-09T08:32:05;101117.38;;;6.96;99.10
47913;BME280;33676;51.006;17.180;2023-04-09T08:34:34;101118.33;;;6.97;99.38
47913;BME280;33676;51.006;17.180;2023-04-09T08:37:02;101116.52;;;6.99;99.35
47913;BME280;33676;51.006;17.180;2023-04-09T08:39:31;101117.86;;;7.00;99.41
47913;BME280;33676;51.006;17.180;2023-04-09T08:41:59;101115.71;;;7.02;99.55
47913;BME280;33676;51.006;17.180;2023-04-09T08:44:30;101117.26;;;7.02;99.70
47913;BME280;33676;51.006;17.180;2023-04-09T08:46:59;101119.66;;;7.02;99.78
47913;BME280;33676;51.006;17.180;2023-04-09T08:49:28;101123.95;;;7.04;99.99
47913;BME280;33676;51.006;17.180;2023-04-09T08:51:56;101125.20;;;7.07;99.95
47913;BME280;33676;51.006;17.180;2023-04-09T08:54:25;101129.76;;;7.09;99.86
47913;BME280;33676;51.006;17.180;2023-04-09T08:56:53;101134.89;;;7.11;99.71
47913;BME280;33676;51.006;17.180;2023-04-09T08:59:23;101129.86;;;7.14;99.64
47913;BME280;33676;51.006;17.180;2023-04-09T09:02:09;101129.73;;;7.16;99.81
47913;BME280;33676;51.006;17.180;2023-04-09T09:04:47;101130.85;;;7.19;99.74
47913;BME280;33676;51.006;17.180;2023-04-09T09:07:16;101129.71;;;7.20;99.85
47913;BME280;33676;51.006;17.180;2023-04-09T09:15:03;101126.77;;;7.37;100.00
47913;BME280;33676;51.006;17.180;2023-04-09T09:17:33;101126.84;;;7.42;100.00
47913;BME280;33676;51.006;17.180;2023-04-09T09:20:19;101124.41;;;7.46;100.00
47913;BME280;33676;51.006;17.180;2023-04-09T09:22:52;101130.02;;;7.48;100.00
47913;BME280;33676;51.006;17.180;2023-04-09T09:25:23;101126.92;;;7.51;100.00
47913;BME280;33676;51.006;17.180;2023-04-09T09:27:53;101127.93;;;7.55;100.00
47913;BME280;33676;51.006;17.180;2023-04-09T09:30:26;101131.66;;;7.60;100.00
47913;BME280;33676;51.006;17.180;2023-04-09T09:33:10;101131.40;;;7.62;100.00
47913;BME280;33676;51.006;17.180;2023-04-09T09:35:53;101129.56;;;7.60;100.00
47913;BME280;33676;51.006;17.180;2023-04-09T09:38:22;101129.84;;;7.58;100.00
47913;BME280;33676;51.006;17.180;2023-04-09T09:40:50;101128.13;;;7.58;100.00
47913;BME280;33676;51.006;17.180;2023-04-09T09:43:19;101127.63;;;7.60;100.00
47913;BME280;33676;51.006;17.180;2023-04-09T09:45:48;101127.25;;;7.65;100.00
47913;BME280;33676;51.006;17.180;2023-04-09T09:48:17;101121.75;;;7.67;100.00
47913;BME280;33676;51.006;17.180;2023-04-09T09:50:46;101122.83;;;7.70;100.00
47913;BME280;33676;51.006;17.180;2023-04-09T09:53:16;101124.98;;;7.72;100.00
47913;BME280;33676;51.006;17.180;2023-04-09T09:55:52;101123.80;;;7.71;100.00
47913;BME280;33676;51.006;17.180;2023-04-09T09:58:23;101121.77;;;7.70;100.00
47913;BME280;33676;51.006;17.180;2023-04-09T10:00:54;101119.86;;;7.70;100.00
47913;BME280;33676;51.006;17.180;2023-04-09T10:03:28;101118.86;;;7.69;100.00
47913;BME280;33676;51.006;17.180;2023-04-09T10:05:57;101117.98;;;7.69;100.00
47913;BME280;33676;51.006;17.180;2023-04-09T10:08:30;101115.36;;;7.69;100.00
47913;BME280;33676;51.006;17.180;2023-04-09T10:11:01;101110.23;;;7.71;100.00
47913;BME280;33676;51.006;17.180;2023-04-09T10:13:38;101105.97;;;7.72;100.00
47913;BME280;33676;51.006;17.180;2023-04-09T10:16:07;101108.27;;;7.75;100.00
47913;BME280;33676;51.006;17.180;2023-04-09T10:18:36;101109.92;;;7.76;100.00
47913;BME280;33676;51.006;17.180;2023-04-09T10:21:31;101112.10;;;7.78;100.00
47913;BME280;33676;51.006;17.180;2023-04-09T10:24:04;101116.81;;;7.78;100.00
47913;BME280;33676;51.006;17.180;2023-04-09T10:26:39;101114.23;;;7.77;100.00
47913;BME280;33676;51.006;17.180;2023-04-09T10:29:13;101113.77;;;7.76;100.00
47913;BME280;33676;51.006;17.180;2023-04-09T10:32:03;101113.19;;;7.77;100.00
47913;BME280;33676;51.006;17.180;2023-04-09T10:34:39;101114.58;;;7.80;100.00
47913;BME280;33676;51.006;17.180;2023-04-09T10:37:13;101112.23;;;7.85;100.00
47913;BME280;33676;51.006;17.180;2023-04-09T10:39:46;101117.56;;;7.89;100.00
47913;BME280;33676;51.006;17.180;2023-04-09T10:42:22;101114.30;;;7.92;100.00
47913;BME280;33676;51.006;17.180;2023-04-09T10:45:12;101116.34;;;7.96;100.00
47913;BME280;33676;51.006;17.180;2023-04-09T10:47:42;101114.61;;;7.99;100.00
47913;BME280;33676;51.006;17.180;2023-04-09T10:50:24;101113.89;;;8.03;100.00
47913;BME280;33676;51.006;17.180;2023-04-09T10:52:55;101112.79;;;8.07;100.00
47913;BME280;33676;51.006;17.180;2023-04-09T10:55:36;101114.74;;;8.13;100.00
47913;BME280;33676;51.006;17.180;2023-04-09T10:58:09;101115.11;;;8.19;100.00
47913;BME280;33676;51.006;17.180;2023-04-09T11:00:45;101111.64;;;8.25;100.00
47913;BME280;33676;51.006;17.180;2023-04-09T11:03:20;101108.02;;;8.31;100.00
47913;BME280;33676;51.006;17.180;2023-04-09T11:06:00;101107.34;;;8.37;100.00
47913;BME280;33676;51.006;17.180;2023-04-09T11:08:32;101107.34;;;8.43;100.00
47913;BME280;33676;51.006;17.180;2023-04-09T11:11:01;101100.19;;;8.46;100.00
47913;BME280;33676;51.006;17.180;2023-04-09T11:13:31;101098.70;;;8.51;100.00
47913;BME280;33676;51.006;17.180;2023-04-09T11:16:00;101101.02;;;8.59;100.00
47913;BME280;33676;51.006;17.180;2023-04-09T11:18:31;101105.40;;;8.65;100.00
47913;BME280;33676;51.006;17.180;2023-04-09T11:21:02;101106.09;;;8.68;100.00
47913;BME280;33676;51.006;17.180;2023-04-09T11:23:32;101105.42;;;8.71;100.00
47913;BME280;33676;51.006;17.180;2023-04-09T11:26:01;101103.67;;;8.74;100.00
47913;BME280;33676;51.006;17.180;2023-04-09T11:28:29;101099.33;;;8.77;100.00
47913;BME280;33676;51.006;17.180;2023-04-09T11:30:58;101099.91;;;8.79;100.00
47913;BME280;33676;51.006;17.180;2023-04-09T11:33:32;101097.67;;;8.78;100.00
47913;BME280;33676;51.006;17.180;2023-04-09T11:36:04;101097.41;;;8.74;99.98
47913;BME280;33676;51.006;17.180;2023-04-09T11:38:35;101096.27;;;8.69;100.00
47913;BME280;33676;51.006;17.180;2023-04-09T11:41:04;101097.10;;;8.67;100.00
47913;BME280;33676;51.006;17.180;2023-04-09T11:43:35;101098.00;;;8.63;100.00
47913;BME280;33676;51.006;17.180;2023-04-09T11:46:04;101096.20;;;8.58;99.89
47913;BME280;33676;51.006;17.180;2023-04-09T11:48:35;101096.74;;;8.55;99.99
47913;BME280;33676;51.006;17.180;2023-04-09T11:51:08;101095.27;;;8.53;100.00
47913;BME280;33676;51.006;17.180;2023-04-09T11:53:37;101092.55;;;8.51;100.00
47913;BME280;33676;51.006;17.180;2023-04-09T11:56:05;101091.95;;;8.50;100.00
47913;BME280;33676;51.006;17.180;2023-04-09T11:58:34;101092.16;;;8.49;99.99
47913;BME280;33676;51.006;17.180;2023-04-09T12:01:03;101095.56;;;8.48;99.95
47913;BME280;33676;51.006;17.180;2023-04-09T12:03:32;101099.57;;;8.48;99.98
47913;BME280;33676;51.006;17.180;2023-04-09T12:06:03;101098.31;;;8.48;100.00
47913;BME280;33676;51.006;17.180;2023-04-09T12:08:35;101104.73;;;8.49;100.00
47913;BME280;33676;51.006;17.180;2023-04-09T12:11:13;101105.89;;;8.50;100.00
47913;BME280;33676;51.006;17.180;2023-04-09T12:13:44;101104.27;;;8.51;100.00
47913;BME280;33676;51.006;17.180;2023-04-09T12:16:13;101102.39;;;8.53;100.00
47913;BME280;33676;51.006;17.180;2023-04-09T12:18:42;101108.23;;;8.55;100.00
47913;BME280;33676;51.006;17.180;2023-04-09T12:21:10;101109.48;;;8.55;100.00
47913;BME280;33676;51.006;17.180;2023-04-09T12:23:39;101107.87;;;8.55;100.00
47913;BME280;33676;51.006;17.180;2023-04-09T12:26:07;101113.98;;;8.58;100.00
47913;BME280;33676;51.006;17.180;2023-04-09T12:28:36;101114.43;;;8.59;100.00
47913;BME280;33676;51.006;17.180;2023-04-09T12:31:08;101111.82;;;8.59;100.00
47913;BME280;33676;51.006;17.180;2023-04-09T12:33:37;101109.21;;;8.62;100.00
47913;BME280;33676;51.006;17.180;2023-04-09T12:36:07;101104.35;;;8.65;100.00
47913;BME280;33676;51.006;17.180;2023-04-09T12:38:35;101106.35;;;8.67;100.00
47913;BME280;33676;51.006;17.180;2023-04-09T12:41:04;101109.26;;;8.71;100.00
47913;BME280;33676;51.006;17.180;2023-04-09T12:43:32;101108.23;;;8.74;100.00
47913;BME280;33676;51.006;17.180;2023-04-09T12:46:01;101106.60;;;8.78;100.00
47913;BME280;33676;51.006;17.180;2023-04-09T12:48:29;101104.95;;;8.82;100.00
47913;BME280;33676;51.006;17.180;2023-04-09T12:50:58;101103.70;;;8.88;100.00
47913;BME280;33676;51.006;17.180;2023-04-09T12:53:27;101104.77;;;8.94;100.00
47913;BME280;33676;51.006;17.180;2023-04-09T12:55:55;101104.11;;;8.99;100.00
47913;BME280;33676;51.006;17.180;2023-04-09T12:58:24;101105.41;;;9.04;100.00
47913;BME280;33676;51.006;17.180;2023-04-09T13:00:52;101103.14;;;9.07;100.00
47913;BME280;33676;51.006;17.180;2023-04-09T13:03:22;101104.08;;;9.09;100.00
47913;BME280;33676;51.006;17.180;2023-04-09T13:05:51;101100.98;;;9.08;99.81
47913;BME280;33676;51.006;17.180;2023-04-09T13:08:19;101101.48;;;9.08;99.67
47913;BME280;33676;51.006;17.180;2023-04-09T13:10:48;101102.83;;;9.09;99.84
47913;BME280;33676;51.006;17.180;2023-04-09T13:13:16;101102.09;;;9.13;100.00
47913;BME280;33676;51.006;17.180;2023-04-09T13:15:45;101100.91;;;9.18;100.00
47913;BME280;33676;51.006;17.180;2023-04-09T13:18:13;101104.48;;;9.22;99.99